createdAt,value
2023-01-31T16:16:53.078Z,18.20
2023-01-31T16:17:57.919Z,17.58
2023-01-31T16:19:00.477Z,19.60
2023-01-31T16:20:02.476Z,18.52
2023-01-31T16:21:27.687Z,23.05
2023-01-31T16:22:32.048Z,19.98
2023-01-31T16:23:36.811Z,16.60
2023-01-31T16:24:53.362Z,20.95
2023-01-31T16:26:22.108Z,13.63
2023-01-31T16:27:24.944Z,13.70
2023-01-31T16:28:30.319Z,12.65
2023-01-31T16:29:42.756Z,16.15
2023-01-31T16:30:44.934Z,15.35
2023-01-31T16:31:53.109Z,15.50
2023-01-31T16:32:56.638Z,21.23
2023-01-31T16:34:01.741Z,21.85
2023-01-31T16:35:17.949Z,20.17
2023-01-31T16:36:26.541Z,16.80
2023-01-31T16:37:41.633Z,21.88
2023-01-31T16:38:54.394Z,19.85
2023-01-31T16:40:20.771Z,15.13
2023-01-31T16:41:48.690Z,23.85
2023-01-31T16:42:50.619Z,15.65
2023-01-31T16:43:52.744Z,9.93
2023-01-31T16:44:54.903Z,10.93
2023-01-31T16:45:59.570Z,16.17
2023-01-31T16:47:01.953Z,13.20
2023-01-31T16:48:20.575Z,10.15
2023-01-31T17:43:04.667Z,12.80
2023-01-31T17:44:06.717Z,9.63
2023-01-31T17:45:17.447Z,11.32
2023-01-31T17:46:19.610Z,8.32
2023-01-31T17:47:23.791Z,10.52
2023-01-31T17:48:26.937Z,14.18
2023-01-31T17:49:29.386Z,11.75
2023-01-31T17:50:31.149Z,15.50
2023-01-31T17:51:32.904Z,14.07
2023-01-31T17:52:34.657Z,11.15
2023-01-31T17:53:44.084Z,7.75
2023-01-31T17:54:51.388Z,12.75
2023-01-31T17:55:53.295Z,16.30
2023-01-31T17:56:55.374Z,13.90
2023-01-31T17:57:57.294Z,12.30
2023-01-31T17:58:59.195Z,11.07
2023-01-31T18:00:01.131Z,12.20
2023-01-31T18:01:02.985Z,11.32
2023-01-31T18:02:04.830Z,11.95
2023-01-31T18:03:06.746Z,11.52
2023-01-31T18:04:08.679Z,11.88
2023-01-31T18:05:12.585Z,10.38
2023-01-31T18:06:14.420Z,10.63
2023-01-31T18:07:16.801Z,12.88
2023-01-31T18:08:19.085Z,12.23
2023-01-31T18:09:20.954Z,10.25
2023-01-31T18:10:22.949Z,10.35
2023-01-31T18:11:24.688Z,10.30
2023-01-31T18:12:27.714Z,10.20
2023-01-31T18:13:29.632Z,10.45
2023-01-31T18:14:31.565Z,8.85
2023-01-31T18:15:33.941Z,10.45
2023-01-31T18:16:35.758Z,14.98
2023-01-31T18:17:37.676Z,15.13
2023-01-31T18:18:46.294Z,12.45
2023-01-31T18:19:48.083Z,11.68
2023-01-31T18:20:49.787Z,13.77
2023-01-31T18:21:55.249Z,10.52
2023-01-31T18:22:57.440Z,11.05
2023-01-31T18:24:00.145Z,12.32
2023-01-31T18:25:02.492Z,13.70
2023-01-31T18:26:06.578Z,12.13
2023-01-31T18:27:08.529Z,14.75
2023-01-31T18:28:10.316Z,8.60
2023-01-31T18:29:19.361Z,11.65
2023-01-31T18:30:21.301Z,10.98
2023-01-31T18:31:23.788Z,11.32
2023-01-31T18:32:25.675Z,10.85
2023-01-31T18:33:27.920Z,13.55
2023-01-31T18:34:33.436Z,11.68
2023-01-31T18:35:35.256Z,9.48
2023-01-31T18:36:36.996Z,15.32
2023-01-31T18:37:38.828Z,8.45
2023-01-31T18:38:43.697Z,9.05
2023-01-31T18:39:48.915Z,5.32
2023-01-31T18:40:51.273Z,8.50
2023-01-31T18:41:53.438Z,7.82
2023-01-31T18:42:55.370Z,8.95
2023-01-31T18:43:57.327Z,8.93
2023-01-31T18:44:59.077Z,11.45
2023-01-31T18:46:03.995Z,14.50
2023-01-31T18:47:05.807Z,15.43
2023-01-31T18:48:07.743Z,16.25
2023-01-31T18:49:09.808Z,14.52
2023-01-31T18:50:11.598Z,20.88
2023-01-31T18:51:14.944Z,14.85
2023-01-31T18:52:16.937Z,18.40
2023-01-31T18:53:18.659Z,15.20
2023-01-31T18:54:21.488Z,16.20
2023-01-31T18:55:23.544Z,15.32
2023-01-31T18:56:25.570Z,11.85
2023-01-31T18:57:27.364Z,11.43
2023-01-31T18:58:36.854Z,12.82
2023-01-31T18:59:38.681Z,11.75
2023-01-31T19:00:40.573Z,9.02
2023-01-31T19:01:43.548Z,11.52
2023-01-31T19:02:55.472Z,13.95
2023-01-31T19:03:58.434Z,12.63
2023-01-31T19:05:00.437Z,16.90
2023-01-31T19:06:13.348Z,15.25
2023-01-31T19:07:15.120Z,14.30
2023-01-31T19:08:16.907Z,13.93
2023-01-31T19:09:18.763Z,16.50
2023-01-31T19:10:20.536Z,13.05
2023-01-31T19:11:25.465Z,11.43
2023-01-31T19:12:27.406Z,10.70
2023-01-31T19:13:29.371Z,8.43
2023-01-31T19:14:31.192Z,10.18
2023-01-31T19:15:32.996Z,8.70
2023-01-31T19:16:40.183Z,11.13
2023-01-31T19:17:42.029Z,10.00
2023-01-31T19:18:43.777Z,8.93
2023-01-31T19:19:45.530Z,9.02
2023-01-31T19:20:47.293Z,10.20
2023-01-31T19:21:49.052Z,9.55
2023-01-31T19:22:52.336Z,8.43
2023-01-31T19:23:56.996Z,10.55
2023-01-31T19:24:58.927Z,16.02
2023-01-31T19:26:01.870Z,14.25
2023-01-31T19:27:03.621Z,9.70
2023-01-31T20:40:35.915Z,19.58
2023-01-31T20:41:38.745Z,20.63
2023-01-31T20:42:40.622Z,20.23
